Flight Track Log - Related Links

Times and Time Zones

All times are in EDT time to prevent confusion due to time zone crossing. See the OPT469 flight status page for this flight to view local times or setup timezone preferences in your user account.

Time Position Orientation Groundspeed Altitude Reporting Facility
EDT Latitude Longitude Course Direction KTS MPH feet Rate Location/Type
Tue 12:21:07 PM 27.9667 -82.5333 211° Southwest 163 188 600  Level Tampa TRACON
Tue 12:22:19 PM 27.9167 -82.5667 211° Southwest 181 208 3,400 2,364 Climbing Tampa TRACON
Tue 12:23:19 PM 27.8667 -82.6000 236° Southwest 206 237 5,800 1,890 Climbing Tampa TRACON
Tue 12:25:20 PM 27.7972 -82.7172 246° West 243 280 9,100 1,525 Climbing Miami Center
Tue 12:26:20 PM 27.7647 -82.8000 244° Southwest 271 312 10,400 1,350 Climbing Miami Center
Tue 12:27:20 PM 27.7278 -82.8872 252° West 297 342 11,800 1,350 Climbing Miami Center
Tue 12:28:20 PM 27.7008 -82.9819 266° West 312 359 13,100 1,300 Climbing Miami Center
Tue 12:29:20 PM 27.6942 -83.0869 269° West 321 369 14,400 1,350 Climbing Miami Center
Tue 12:30:20 PM 27.6917 -83.1947 266° West 340 391 15,800 1,350 Climbing Miami Center
Tue 12:31:20 PM 27.6847 -83.3019 270° West 345 397 17,100 1,200 Climbing Miami Center
Tue 12:32:20 PM 27.6842 -83.4075 270° West 345 397 18,200 1,200 Climbing Miami Center
Tue 12:33:20 PM 27.6833 -83.5150 266° West 345 397 19,500 1,350 Climbing Miami Center
Tue 12:34:20 PM 27.6764 -83.6178 271° West 345 397 20,900 1,350 Climbing Miami Center
Tue 12:35:20 PM 27.6775 -83.7256 266° West 345 397 22,200 1,150 Climbing Miami Center
Tue 12:36:20 PM 27.6703 -83.8353 266° West 345 397 23,200 1,100 Climbing Miami Center
Tue 12:37:20 PM 27.6625 -83.9519 267° West 355 409 24,400 1,200 Climbing Miami Center
Tue 12:38:20 PM 27.6569 -84.0639 283° West 361 415 25,600 1,200 Climbing Miami Center
Tue 12:39:20 PM 27.6803 -84.1778 284° West 366 421 26,800 1,250 Climbing Miami Center
Tue 12:40:20 PM 27.7058 -84.2917 281° West 372 428 28,100 1,250 Climbing Miami Center
Tue 12:41:20 PM 27.7250 -84.4056 282° West 372 428 29,300 1,200 Climbing Miami Center
Tue 12:42:20 PM 27.7461 -84.5147 282° West 372 428 30,500 1,156 Climbing Miami Center
Tue 12:43:35 PM 27.7708 -84.6514 283° West 375 432 31,900 1,067 Climbing Jacksonville Center
Tue 12:44:35 PM 27.7942 -84.7692 287° West 363 418 32,900 1,000 Climbing Jacksonville Center
Tue 12:45:35 PM 27.8239 -84.8775 289° West 363 418 33,900 950 Climbing Jacksonville Center
Tue 12:46:35 PM 27.8556 -84.9814 287° West 351 404 34,800 900 Climbing Jacksonville Center
Tue 12:47:35 PM 27.8831 -85.0853 289° West 346 398 35,700 850 Climbing Jacksonville Center
Tue 12:48:35 PM 27.9125 -85.1847 290° West 346 398 36,500 800 Climbing Jacksonville Center
Tue 12:49:35 PM 27.9442 -85.2839 288° West 341 392 37,300 650 Climbing Jacksonville Center
Tue 12:50:35 PM 27.9736 -85.3858 288° West 341 392 37,800 350 Climbing Jacksonville Center
Tue 12:51:35 PM 28.0028 -85.4875 286° West 346 398 38,000 350 Climbing Jacksonville Center
Tue 12:52:35 PM 28.0297 -85.5939 288° West 344 396 38,500 500 Climbing Jacksonville Center
Tue 12:53:35 PM 28.0589 -85.6958 290° West 339 390 39,000 450 Climbing Jacksonville Center
Tue 12:54:35 PM 28.0900 -85.7931 286° West 339 390 39,400 350 Climbing Jacksonville Center
Tue 12:55:35 PM 28.1169 -85.8975 289° West 339 390 39,700 300 Climbing Jacksonville Center
Tue 12:56:35 PM 28.1461 -85.9925 288° West 339 390 40,000 150 Climbing Jacksonville Center
Tue 12:57:35 PM 28.1747 -86.0947 288° West 339 390 40,000  Level Jacksonville Center
Tue 12:58:35 PM 28.2036 -86.1967 287° West 352 405 40,000  Level Jacksonville Center
Tue 12:59:35 PM 28.2319 -86.3036 290° West 344 396 40,000  Level Jacksonville Center
Tue 01:00:35 PM 28.2686 -86.4203 286° West 360 414 40,000  Level Jacksonville Center
Tue 01:01:35 PM 28.2928 -86.5178 289° West 360 414 40,000  Level Jacksonville Center
Tue 01:02:35 PM 28.3292 -86.6369 287° West 373 429 40,000  Level Jacksonville Center
Tue 01:03:35 PM 28.3592 -86.7489 287° West 373 429 40,000  Level Jacksonville Center
Tue 01:04:35 PM 28.3892 -86.8611 288° West 368 423 40,000  Level Jacksonville Center
Tue 01:05:35 PM 28.4211 -86.9731 286° West 373 429 40,000  Level Jacksonville Center
Tue 01:06:35 PM 28.4489 -87.0828 290° West 368 423 40,000  Level Jacksonville Center
Tue 01:07:35 PM 28.4828 -87.1906 287° West 374 430 40,000 -50 Level Jacksonville Center
Tue 01:08:35 PM 28.5106 -87.2933 287° West 382 440 39,900  Descending Jacksonville Center
Tue 01:09:35 PM 28.5439 -87.4175 287° West 382 440 40,000  Climbing Jacksonville Center
Tue 01:11:59 PM 28.6206 -87.6967 288° West 387 445 39,900  Descending Houston Center
Tue 01:12:59 PM 28.6531 -87.8114 287° West 390 449 40,000 50 Climbing Houston Center
Tue 01:13:59 PM 28.6853 -87.9286 286° West 383 441 40,000  Level Houston Center
Tue 01:14:59 PM 28.7133 -88.0389 289° West 382 440 40,000  Level Houston Center
Tue 01:15:59 PM 28.7478 -88.1539 305° West 355 409 40,000  Level Houston Center
Tue 01:16:59 PM 28.8086 -88.2539 304° West 360 414 40,000  Level Houston Center
Tue 01:17:59 PM 28.8675 -88.3539 305° West 371 427 40,000  Level Houston Center
Tue 01:18:59 PM 28.9283 -88.4517 306° West 376 433 40,000 -50 Level Houston Center
Tue 01:19:59 PM 28.9892 -88.5472 305° West 376 433 39,900  Descending Houston Center
Tue 01:20:59 PM 29.0456 -88.6406 306° West 371 427 40,000 50 Climbing Houston Center
Tue 01:21:59 PM 29.1039 -88.7342 303° West 366 421 40,000  Level Houston Center
Tue 01:22:59 PM 29.1581 -88.8300 305° West 366 421 40,000 -50 Level Houston Center
Tue 01:23:59 PM 29.2164 -88.9261 304° West 366 421 39,900  Descending Houston Center
Tue 01:24:59 PM 29.2725 -89.0200 303° West 366 421 40,000 50 Climbing Houston Center
Tue 01:25:59 PM 29.3286 -89.1186 304° West 366 421 40,000  Level Houston Center
Tue 01:26:59 PM 29.3825 -89.2103 305° West 366 421 40,000  Level Houston Center
Tue 01:27:59 PM 29.4408 -89.3067 304° West 366 421 40,000 -50 Level Houston Center
Tue 01:28:59 PM 29.4967 -89.4031 303° West 366 421 39,900  Descending Houston Center
Tue 01:29:59 PM 29.5525 -89.5022 305° West 366 421 40,000 50 Climbing Houston Center
Tue 01:30:59 PM 29.6103 -89.5967 305° West 366 421 40,000 -50 Level Houston Center
Tue 01:31:59 PM 29.6681 -89.6911 303° West 366 421 39,900  Descending Houston Center
Tue 01:32:59 PM 29.7258 -89.7928 304° West 366 421 40,000 50 Climbing Houston Center
Tue 01:33:59 PM 29.7817 -89.8900 303° West 371 427 40,000 -50 Level Houston Center
Tue 01:34:59 PM 29.8369 -89.9897 305° West 371 427 39,900  Descending Houston Center
Tue 01:35:59 PM 29.8967 -90.0869 304° West 371 427 40,000 50 Climbing Houston Center
Tue 01:36:59 PM 29.9542 -90.1867 303° West 371 427 40,000  Level Houston Center
Tue 01:37:59 PM 30.0117 -90.2889 303° West 371 427 40,000  Level Houston Center
Tue 01:38:59 PM 30.0689 -90.3892 305° West 371 427 40,000 -50 Level Houston Center
Tue 01:39:59 PM 30.1283 -90.4892 303° West 371 427 39,900  Descending Houston Center
Tue 01:40:59 PM 30.1856 -90.5894 304° West 371 427 40,000 50 Climbing Houston Center
Tue 01:41:59 PM 30.2447 -90.6897 303° West 371 427 40,000  Level Houston Center
Tue 01:42:59 PM 30.3017 -90.7928 304° West 371 427 40,000  Level Houston Center
Tue 01:43:59 PM 30.3608 -90.8956 304° West 371 427 40,000  Level Houston Center
Tue 01:44:59 PM 30.4197 -90.9964 302° West 376 433 40,000  Level Houston Center
Tue 01:45:59 PM 30.4744 -91.0972 304° West 376 433 40,000  Level Houston Center
Tue 01:46:59 PM 30.5356 -91.2006 303° West 376 433 40,000  Level Houston Center
Tue 01:47:59 PM 30.5942 -91.3039 303° West 381 438 40,000  Level Houston Center
Tue 01:48:59 PM 30.6531 -91.4075 302° West 386 444 40,000  Level Houston Center
Tue 01:49:59 PM 30.7094 -91.5114 302° West 386 444 40,000  Level Houston Center
Tue 01:50:59 PM 30.7658 -91.6150 305° West 386 444 40,000  Level Houston Center
Tue 01:51:59 PM 30.8264 -91.7142 302° West 381 438 40,000  Level Houston Center
Tue 01:52:59 PM 30.8786 -91.8111 302° West 381 438 40,000  Level Houston Center
Tue 01:53:59 PM 30.9325 -91.9103 303° West 381 438 40,000  Level Houston Center
Tue 01:54:59 PM 30.9908 -92.0147 301° West 381 438 40,000  Level Houston Center
Tue 01:55:59 PM 31.0428 -92.1167 294° West 381 438 40,000  Level Houston Center
Tue 01:56:59 PM 31.0819 -92.2211 296° West 369 425 40,000  Level Houston Center
Tue 01:57:59 PM 31.1272 -92.3306 293° West 369 425 40,000  Level Houston Center
Tue 01:58:59 PM 31.1664 -92.4400 294° West 369 425 40,000  Level Houston Center
Tue 02:01:19 PM 31.2628 -92.6917 296° West 355 409 40,000  Level Fort Worth Center
Tue 02:02:19 PM 31.3086 -92.8011 292° West 360 414 40,000  Level Fort Worth Center
Tue 02:03:19 PM 31.3461 -92.9114 293° West 365 420 40,000  Level Fort Worth Center
Tue 02:04:19 PM 31.3853 -93.0214 294° West 365 420 40,000  Level Fort Worth Center
Tue 02:05:19 PM 31.4267 -93.1289 293° West 370 426 40,000  Level Fort Worth Center
Tue 02:06:19 PM 31.4658 -93.2389 294° West 370 426 40,000  Level Fort Worth Center
Tue 02:07:19 PM 31.5069 -93.3469 294° West 370 426 40,000  Level Fort Worth Center
Tue 02:08:19 PM 31.5481 -93.4547 293° West 370 426 40,000  Level Fort Worth Center
Tue 02:09:19 PM 31.5867 -93.5628 294° West 370 426 40,000  Level Fort Worth Center
Tue 02:10:19 PM 31.6275 -93.6683 292° West 365 420 40,000  Level Fort Worth Center
Tue 02:11:19 PM 31.6664 -93.7814 293° West 374 430 40,000  Level Fort Worth Center
Tue 02:12:19 PM 31.7094 -93.9019 293° West 362 417 40,000  Level Fort Worth Center
Tue 02:13:19 PM 31.7456 -94.0006 294° West 367 422 40,000  Level Fort Worth Center
Tue 02:14:19 PM 31.7858 -94.1067 292° West 367 422 40,000  Level Fort Worth Center
Tue 02:15:19 PM 31.8308 -94.2347 293° West 367 422 40,000  Level Fort Worth Center
Tue 02:16:19 PM 31.8714 -94.3458 293° West 367 422 40,000  Level Fort Worth Center
Tue 02:17:19 PM 31.9117 -94.4594 294° West 367 422 40,000  Level Fort Worth Center
Tue 02:18:19 PM 31.9539 -94.5731 293° West 372 428 40,000 -600 Level Fort Worth Center
Tue 02:19:19 PM 31.9939 -94.6869 292° West 372 428 38,800 -1,600 Descending Fort Worth Center
Tue 02:20:19 PM 32.0361 -94.8108 293° West 384 442 36,800 -2,050 Descending Fort Worth Center
Tue 02:21:19 PM 32.0783 -94.9297 293° West 397 457 34,700 -2,100 Descending Fort Worth Center
Tue 02:22:19 PM 32.1200 -95.0439 291° West 392 451 32,600 -2,050 Descending Fort Worth Center
Tue 02:23:19 PM 32.1578 -95.1606 294° West 386 444 30,600 -2,050 Descending Fort Worth Center
Tue 02:24:19 PM 32.2017 -95.2800 294° West 391 450 28,500 -1,950 Descending Fort Worth Center
Tue 02:25:19 PM 32.2431 -95.3894 293° West 380 437 26,700 -1,950 Descending Fort Worth Center
Tue 02:26:19 PM 32.2844 -95.5064 290° West 380 437 24,600 -2,250 Descending Fort Worth Center
Tue 02:27:19 PM 32.3219 -95.6311 294° West 391 450 22,200 -2,400 Descending Fort Worth Center
Tue 02:28:19 PM 32.3653 -95.7483 293° West 392 451 19,800 -2,250 Descending Fort Worth Center
Tue 02:29:19 PM 32.4064 -95.8656 291° West 392 451 17,700 -2,300 Descending Fort Worth Center
Tue 02:30:19 PM 32.4411 -95.9708 299° West 364 419 15,200 -2,367 Descending Fort Worth Center
Tue 02:31:08 PM 32.4750 -96.0425 290° West 337 388 13,400 -2,225 Descending FAA TRACON SMA TRACON (SMA)
Tue 02:31:48 PM 32.4978 -96.1150 292° West 340 391 11,900 -2,175 Descending FAA TRACON SMA TRACON (SMA)
Tue 02:32:28 PM 32.5194 -96.1789 291° West 339 390 10,500 -2,077 Descending FAA TRACON SMA TRACON (SMA)
Tue 02:33:06 PM 32.5411 -96.2469 291° West 313 360 9,200 -1,215 Descending FAA TRACON SMA TRACON (SMA)
Tue 02:33:47 PM 32.5600 -96.3067 298° West 276 318 8,900 -532 Descending FAA TRACON SMA TRACON (SMA)
Tue 02:34:25 PM 32.5817 -96.3547 304° West 268 308 8,500 -825 Descending FAA TRACON SMA TRACON (SMA)
Tue 02:35:07 PM 32.6108 -96.4058 303° West 270 311 7,800 -963 Descending FAA TRACON SMA TRACON (SMA)
Tue 02:35:46 PM 32.6364 -96.4522 304° West 274 315 7,200 -1,063 Descending FAA TRACON SMA TRACON (SMA)
Tue 02:36:26 PM 32.6664 -96.5042 315° West 274 315 6,400 -1,125 Descending FAA TRACON SMA TRACON (SMA)
Tue 02:37:06 PM 32.7022 -96.5472 316° Northwest 268 308 5,700 -1,125 Descending FAA TRACON SMA TRACON (SMA)
Tue 02:37:46 PM 32.7381 -96.5883 317° Northwest 258 297 4,900 -593 Descending FAA TRACON SMA TRACON (SMA)
Tue 02:38:27 PM 32.7708 -96.6253 316° Northwest 265 305 4,900  Level FAA TRACON SMA TRACON (SMA)
Tue 02:39:05 PM 32.8092 -96.6686 316° Northwest 275 316 4,900 -450 Level FAA TRACON SMA TRACON (SMA)
Tue 02:39:47 PM 32.8461 -96.7111 315° West 267 307 4,300 -667 Descending FAA TRACON SMA TRACON (SMA)
Tue 02:40:26 PM 32.8769 -96.7483 314° West 258 297 4,000 -532 Descending FAA TRACON SMA TRACON (SMA)
Tue 02:41:06 PM 32.9086 -96.7881 309° West 237 273 3,600 -444 Descending FAA TRACON SMA TRACON (SMA)
Tue 02:41:47 PM 32.9361 -96.8289 253° West 233 268 3,400 -675 Descending FAA TRACON SMA TRACON (SMA)
Tue 02:42:26 PM 32.9261 -96.8672 207° Southwest 208 239 2,700 -1,462 Descending FAA TRACON SMA TRACON (SMA)
Tue 02:43:05 PM 32.8964 -96.8850 153° Southeast 178 205 1,500 -1,407 Descending FAA TRACON SMA TRACON (SMA)
Tue 02:43:47 PM 32.8714 -96.8700 155° Southeast 145 167 800 -448 Descending FAA TRACON SMA TRACON (SMA)
Tue 02:45:19 PM 32.8342 -96.8497 155° Southeast 95 109 500 -196 Descending Fort Worth Center

Login

Don't have an account? Register now (free) for customized features, flight alerts, and more!